Time;durP1;ratioP1;P1;durP2;ratioP2;P2;SDS_P1;SDS_P2;PMS_P1;PMS_P2;Temp;Humidity;BMP_temperature;BMP_pressure;BME280_temperature;BME280_humidity;BME280_pressure;Samples;Min_cycle;Max_cycle;Signal;HPM_P1;HPM_P2
2022/09/16 00:01:12;;;;;;;13.60;7.15;;;;;;;;;;6120239;23;20152;-90
2022/09/16 00:04:17;;;;;;;13.95;6.57;;;;;;;;;;6136613;23;20173;-90
2022/09/16 00:07:22;;;;;;;10.57;5.88;;;;;;;;;;6120260;23;20172;-89
2022/09/16 00:10:29;;;;;;;17.50;6.07;;;;;;;;;;6120329;23;20205;-88
2022/09/16 00:13:35;;;;;;;15.43;5.57;;;;;;;;;;6117287;23;20169;-88
2022/09/16 00:16:40;;;;;;;10.43;5.53;;;;;;;;;;6118657;23;20166;-89
2022/09/16 00:19:45;;;;;;;11.55;5.68;;;;;;;;;;6116714;23;20181;-88
2022/09/16 00:22:50;;;;;;;12.18;5.72;;;;;;;;;;6116130;23;20164;-89
2022/09/16 00:25:56;;;;;;;10.98;6.20;;;;;;;;;;6117257;23;20217;-89
2022/09/16 00:29:01;;;;;;;11.57;6.78;;;;;;;;;;6117339;23;20165;-88
2022/09/16 00:32:06;;;;;;;18.00;6.55;;;;;;;;;;6117277;23;20677;-90
2022/09/16 00:35:11;;;;;;;10.63;6.38;;;;;;;;;;6134933;23;20181;-90
2022/09/16 00:38:16;;;;;;;16.52;7.22;;;;;;;;;;6117615;23;20197;-87
2022/09/16 00:41:24;;;;;;;13.00;7.28;;;;;;;;;;6116685;23;20501;-89
2022/09/16 00:44:48;;;;;;;14.38;7.05;;;;;;;;;;6117255;23;20169;-88
2022/09/16 00:48:03;;;;;;;13.73;7.43;;;;;;;;;;6116871;23;20321;-90
2022/09/16 00:51:09;;;;;;;18.05;7.88;;;;;;;;;;6115803;23;20503;-90
2022/09/16 00:54:15;;;;;;;16.90;7.68;;;;;;;;;;6118423;23;20148;-90
2022/09/16 00:57:22;;;;;;;13.73;7.82;;;;;;;;;;6119248;23;20220;-87
2022/09/16 01:00:29;;;;;;;18.33;8.35;;;;;;;;;;6120301;23;20172;-89
2022/09/16 01:03:36;;;;;;;14.00;7.60;;;;;;;;;;6121328;23;20173;-89
2022/09/16 01:06:41;;;;;;;11.32;6.45;;;;;;;;;;6118583;23;20189;-89
2022/09/16 01:09:46;;;;;;;16.27;7.55;;;;;;;;;;6117875;23;20181;-89
2022/09/16 01:12:55;;;;;;;13.68;7.45;;;;;;;;;;6118823;23;20213;-90
2022/09/16 01:16:07;;;;;;;16.27;7.18;;;;;;;;;;6118479;23;20186;-89
2022/09/16 01:19:19;;;;;;;16.88;8.57;;;;;;;;;;6120698;23;20153;-90
2022/09/16 01:22:32;;;;;;;16.10;7.75;;;;;;;;;;6119392;23;20181;-89
2022/09/16 01:25:44;;;;;;;15.88;7.97;;;;;;;;;;6121619;23;20180;-89
2022/09/16 01:29:00;;;;;;;16.90;7.80;;;;;;;;;;6124599;23;20169;-90
2022/09/16 01:32:10;;;;;;;14.18;7.57;;;;;;;;;;6120842;23;20238;-89
2022/09/16 01:35:21;;;;;;;13.95;6.95;;;;;;;;;;6119074;23;20545;-89
2022/09/16 01:38:38;;;;;;;13.25;6.95;;;;;;;;;;6118471;23;20169;-89
2022/09/16 01:41:46;;;;;;;13.57;7.05;;;;;;;;;;6118045;23;20231;-90
2022/09/16 01:44:54;;;;;;;11.43;7.00;;;;;;;;;;6115201;23;20169;-89
2022/09/16 01:48:36;;;;;;;13.88;7.75;;;;;;;;;;6116973;23;20170;-89
2022/09/16 01:51:46;;;;;;;13.95;7.45;;;;;;;;;;6116064;23;20185;-90
2022/09/16 01:54:54;;;;;;;19.88;8.43;;;;;;;;;;6117086;23;20239;-89
2022/09/16 01:58:02;;;;;;;13.70;7.65;;;;;;;;;;6115414;23;20222;-89
2022/09/16 02:01:09;;;;;;;12.13;7.55;;;;;;;;;;6136552;23;20148;-89
2022/09/16 02:04:16;;;;;;;25.92;8.13;;;;;;;;;;6118623;23;20392;-90
2022/09/16 02:07:25;;;;;;;13.23;7.53;;;;;;;;;;6117775;23;20240;-90
2022/09/16 02:10:32;;;;;;;31.17;8.18;;;;;;;;;;6116711;23;20189;-89
2022/09/16 02:13:40;;;;;;;14.93;8.52;;;;;;;;;;6114451;23;20182;-89
2022/09/16 02:16:49;;;;;;;14.23;7.90;;;;;;;;;;6117143;23;20169;-89
2022/09/16 02:19:57;;;;;;;17.35;8.38;;;;;;;;;;6118133;23;20196;-89
2022/09/16 02:23:05;;;;;;;18.65;8.82;;;;;;;;;;6118325;23;20224;-90
2022/09/16 02:26:13;;;;;;;12.55;7.72;;;;;;;;;;6118830;23;20636;-89
2022/09/16 02:29:20;;;;;;;13.57;8.18;;;;;;;;;;6116336;23;20821;-90
2022/09/16 02:32:27;;;;;;;16.70;8.07;;;;;;;;;;6117729;23;20394;-90
2022/09/16 02:35:35;;;;;;;14.60;7.95;;;;;;;;;;6117614;23;20624;-89
2022/09/16 02:38:45;;;;;;;11.77;7.88;;;;;;;;;;6117940;23;20212;-90
2022/09/16 02:41:50;;;;;;;14.00;8.55;;;;;;;;;;6117778;23;20173;-90
2022/09/16 02:44:56;;;;;;;17.55;8.73;;;;;;;;;;6117858;23;20169;-90
2022/09/16 02:48:08;;;;;;;21.08;9.65;;;;;;;;;;6116815;23;20217;-91
2022/09/16 02:51:16;;;;;;;19.30;9.45;;;;;;;;;;6117676;23;20181;-89
2022/09/16 02:54:27;;;;;;;20.35;9.75;;;;;;;;;;6117157;23;20169;-89
2022/09/16 02:57:32;;;;;;;17.48;9.68;;;;;;;;;;6116715;23;20166;-89
2022/09/16 03:00:39;;;;;;;19.27;9.55;;;;;;;;;;6117117;23;20174;-88
2022/09/16 03:03:44;;;;;;;22.15;9.15;;;;;;;;;;6117016;23;20172;-90
2022/09/16 03:06:48;;;;;;;19.00;9.18;;;;;;;;;;6116627;23;20193;-88
2022/09/16 03:09:54;;;;;;;21.15;9.70;;;;;;;;;;6117091;23;20324;-89
2022/09/16 03:13:03;;;;;;;23.00;9.18;;;;;;;;;;6118829;23;20173;-90
2022/09/16 03:16:11;;;;;;;22.27;9.70;;;;;;;;;;6117113;23;20510;-88
2022/09/16 03:19:21;;;;;;;18.70;9.05;;;;;;;;;;6118671;23;20169;-89
2022/09/16 03:22:32;;;;;;;16.65;9.52;;;;;;;;;;6119257;23;20165;-89
2022/09/16 03:25:44;;;;;;;14.27;8.30;;;;;;;;;;6119040;23;20239;-90
2022/09/16 03:28:55;;;;;;;21.35;8.95;;;;;;;;;;6116952;23;20302;-90
2022/09/16 03:32:03;;;;;;;16.95;9.18;;;;;;;;;;6116214;23;20201;-89
2022/09/16 03:35:12;;;;;;;19.10;8.90;;;;;;;;;;6118891;23;20189;-89
2022/09/16 03:38:17;;;;;;;13.82;8.70;;;;;;;;;;6116094;23;20177;-90
2022/09/16 03:41:24;;;;;;;15.65;7.90;;;;;;;;;;6117160;23;20217;-91
2022/09/16 03:44:33;;;;;;;14.95;8.50;;;;;;;;;;6115947;23;20173;-90
2022/09/16 03:51:55;;;;;;;13.73;7.60;;;;;;;;;;6134093;23;20153;-89
2022/09/16 03:55:00;;;;;;;14.20;8.00;;;;;;;;;;6115889;23;20173;-89
2022/09/16 03:58:07;;;;;;;12.77;7.57;;;;;;;;;;6117094;23;20177;-89
2022/09/16 04:01:37;;;;;;;16.23;8.18;;;;;;;;;;6116265;23;20172;-88
2022/09/16 04:04:42;;;;;;;13.38;7.90;;;;;;;;;;6116257;23;20248;-89
2022/09/16 04:07:49;;;;;;;10.95;7.65;;;;;;;;;;6119170;23;20241;-89
2022/09/16 04:10:57;;;;;;;14.38;7.63;;;;;;;;;;6117256;23;20280;-91
2022/09/16 04:14:04;;;;;;;11.23;6.82;;;;;;;;;;6116027;23;20289;-90
2022/09/16 04:17:09;;;;;;;10.55;6.85;;;;;;;;;;6117926;23;20197;-90
2022/09/16 04:20:14;;;;;;;11.90;6.75;;;;;;;;;;6116822;23;20220;-89
2022/09/16 04:23:19;;;;;;;12.80;7.30;;;;;;;;;;6116018;23;20621;-89
2022/09/16 04:29:28;;;;;;;10.90;6.85;;;;;;;;;;6117943;23;20406;-89
2022/09/16 04:32:33;;;;;;;11.68;6.88;;;;;;;;;;6115888;23;20312;-91
2022/09/16 04:35:38;;;;;;;15.57;7.68;;;;;;;;;;6116735;23;20290;-88
2022/09/16 04:38:44;;;;;;;13.35;7.63;;;;;;;;;;6117375;23;20180;-88
2022/09/16 04:41:48;;;;;;;14.27;7.18;;;;;;;;;;6115955;23;20252;-88
2022/09/16 04:44:56;;;;;;;15.02;7.32;;;;;;;;;;6118713;23;20153;-89
2022/09/16 04:48:03;;;;;;;13.02;6.72;;;;;;;;;;6118531;23;20243;-88
